sensor_id;sensor_type;location;lat;lon;timestamp;P1;durP1;ratioP1;P2;durP2;ratioP2
18834;SDS011;9546;59.262;18.036;2022-08-03T00:01:53;3.70;;;1.63;;
18834;SDS011;9546;59.262;18.036;2022-08-03T00:04:20;4.82;;;1.73;;
18834;SDS011;9546;59.262;18.036;2022-08-03T00:06:47;7.28;;;2.00;;
18834;SDS011;9546;59.262;18.036;2022-08-03T00:09:14;2.90;;;1.40;;
18834;SDS011;9546;59.262;18.036;2022-08-03T00:11:40;5.18;;;1.70;;
18834;SDS011;9546;59.262;18.036;2022-08-03T00:14:07;4.93;;;1.40;;
18834;SDS011;9546;59.262;18.036;2022-08-03T00:16:34;2.90;;;1.48;;
18834;SDS011;9546;59.262;18.036;2022-08-03T00:19:02;3.63;;;1.70;;
18834;SDS011;9546;59.262;18.036;2022-08-03T00:21:30;2.92;;;1.23;;
18834;SDS011;9546;59.262;18.036;2022-08-03T00:23:56;3.75;;;1.48;;
18834;SDS011;9546;59.262;18.036;2022-08-03T00:26:23;4.00;;;1.35;;
18834;SDS011;9546;59.262;18.036;2022-08-03T00:28:50;3.40;;;1.30;;
18834;SDS011;9546;59.262;18.036;2022-08-03T00:31:17;2.78;;;1.35;;
18834;SDS011;9546;59.262;18.036;2022-08-03T00:33:43;3.72;;;1.13;;
18834;SDS011;9546;59.262;18.036;2022-08-03T00:36:12;4.82;;;1.48;;
18834;SDS011;9546;59.262;18.036;2022-08-03T00:38:38;3.30;;;1.30;;
18834;SDS011;9546;59.262;18.036;2022-08-03T00:41:05;2.80;;;1.38;;
18834;SDS011;9546;59.262;18.036;2022-08-03T00:43:32;4.03;;;1.55;;
18834;SDS011;9546;59.262;18.036;2022-08-03T00:45:59;2.53;;;1.50;;
18834;SDS011;9546;59.262;18.036;2022-08-03T00:48:26;3.95;;;1.35;;
18834;SDS011;9546;59.262;18.036;2022-08-03T00:50:52;3.95;;;1.40;;
18834;SDS011;9546;59.262;18.036;2022-08-03T01:12:12;3.58;;;1.10;;
18834;SDS011;9546;59.262;18.036;2022-08-03T01:14:48;2.13;;;1.33;;
18834;SDS011;9546;59.262;18.036;2022-08-03T01:17:19;2.67;;;1.20;;
18834;SDS011;9546;59.262;18.036;2022-08-03T01:19:52;4.55;;;1.45;;
18834;SDS011;9546;59.262;18.036;2022-08-03T01:22:39;5.70;;;1.10;;
18834;SDS011;9546;59.262;18.036;2022-08-03T01:25:27;2.80;;;1.20;;
18834;SDS011;9546;59.262;18.036;2022-08-03T01:28:11;1.80;;;1.05;;
18834;SDS011;9546;59.262;18.036;2022-08-03T01:30:52;1.42;;;1.10;;
18834;SDS011;9546;59.262;18.036;2022-08-03T01:33:25;2.00;;;1.17;;
18834;SDS011;9546;59.262;18.036;2022-08-03T01:36:01;2.67;;;1.10;;
18834;SDS011;9546;59.262;18.036;2022-08-03T01:38:31;2.95;;;1.00;;
18834;SDS011;9546;59.262;18.036;2022-08-03T01:41:00;3.47;;;1.20;;
18834;SDS011;9546;59.262;18.036;2022-08-03T01:43:32;2.38;;;1.20;;
18834;SDS011;9546;59.262;18.036;2022-08-03T01:46:02;2.72;;;1.10;;
18834;SDS011;9546;59.262;18.036;2022-08-03T01:48:29;2.30;;;1.38;;
18834;SDS011;9546;59.262;18.036;2022-08-03T01:50:57;2.55;;;1.10;;
18834;SDS011;9546;59.262;18.036;2022-08-03T01:53:25;3.60;;;1.10;;
18834;SDS011;9546;59.262;18.036;2022-08-03T01:55:53;3.00;;;1.00;;
18834;SDS011;9546;59.262;18.036;2022-08-03T01:58:23;2.72;;;1.10;;
18834;SDS011;9546;59.262;18.036;2022-08-03T02:00:50;2.67;;;1.05;;
18834;SDS011;9546;59.262;18.036;2022-08-03T02:03:21;1.35;;;0.85;;
18834;SDS011;9546;59.262;18.036;2022-08-03T02:05:49;1.10;;;0.90;;
18834;SDS011;9546;59.262;18.036;2022-08-03T02:08:18;2.05;;;1.20;;
18834;SDS011;9546;59.262;18.036;2022-08-03T02:10:47;3.33;;;1.00;;
18834;SDS011;9546;59.262;18.036;2022-08-03T02:13:15;1.83;;;1.00;;
18834;SDS011;9546;59.262;18.036;2022-08-03T02:15:44;3.25;;;1.05;;
18834;SDS011;9546;59.262;18.036;2022-08-03T02:18:12;0.80;;;0.80;;
18834;SDS011;9546;59.262;18.036;2022-08-03T02:20:42;2.25;;;1.08;;
18834;SDS011;9546;59.262;18.036;2022-08-03T02:23:09;2.03;;;1.10;;
18834;SDS011;9546;59.262;18.036;2022-08-03T02:25:39;2.08;;;1.00;;
18834;SDS011;9546;59.262;18.036;2022-08-03T02:28:09;2.90;;;1.00;;
18834;SDS011;9546;59.262;18.036;2022-08-03T02:30:39;1.85;;;1.00;;
18834;SDS011;9546;59.262;18.036;2022-08-03T02:33:09;1.67;;;1.10;;
18834;SDS011;9546;59.262;18.036;2022-08-03T02:35:44;5.22;;;1.30;;
18834;SDS011;9546;59.262;18.036;2022-08-03T02:38:14;3.15;;;1.10;;
18834;SDS011;9546;59.262;18.036;2022-08-03T02:40:43;3.25;;;1.15;;
18834;SDS011;9546;59.262;18.036;2022-08-03T02:43:18;2.53;;;1.05;;
18834;SDS011;9546;59.262;18.036;2022-08-03T02:45:47;2.05;;;1.15;;
18834;SDS011;9546;59.262;18.036;2022-08-03T02:48:16;1.48;;;0.88;;
18834;SDS011;9546;59.262;18.036;2022-08-03T02:50:48;1.75;;;1.02;;
18834;SDS011;9546;59.262;18.036;2022-08-03T03:12:23;2.13;;;1.08;;
18834;SDS011;9546;59.262;18.036;2022-08-03T03:14:51;1.90;;;1.00;;
18834;SDS011;9546;59.262;18.036;2022-08-03T03:17:17;1.63;;;0.90;;
18834;SDS011;9546;59.262;18.036;2022-08-03T03:19:44;2.97;;;1.10;;
18834;SDS011;9546;59.262;18.036;2022-08-03T03:22:11;3.15;;;1.15;;
18834;SDS011;9546;59.262;18.036;2022-08-03T03:24:39;2.20;;;1.08;;
18834;SDS011;9546;59.262;18.036;2022-08-03T03:27:06;2.65;;;1.00;;
18834;SDS011;9546;59.262;18.036;2022-08-03T03:29:35;1.20;;;0.93;;
18834;SDS011;9546;59.262;18.036;2022-08-03T03:32:02;1.77;;;1.00;;
18834;SDS011;9546;59.262;18.036;2022-08-03T03:34:28;1.70;;;1.10;;
18834;SDS011;9546;59.262;18.036;2022-08-03T03:36:55;2.97;;;1.27;;
18834;SDS011;9546;59.262;18.036;2022-08-03T03:39:22;1.63;;;1.00;;
18834;SDS011;9546;59.262;18.036;2022-08-03T03:41:48;4.15;;;1.10;;
18834;SDS011;9546;59.262;18.036;2022-08-03T03:44:15;5.40;;;1.25;;
18834;SDS011;9546;59.262;18.036;2022-08-03T03:46:43;3.85;;;1.52;;
18834;SDS011;9546;59.262;18.036;2022-08-03T03:49:09;3.50;;;1.40;;
18834;SDS011;9546;59.262;18.036;2022-08-03T03:51:36;1.30;;;1.20;;
18834;SDS011;9546;59.262;18.036;2022-08-03T03:54:03;1.85;;;1.27;;
18834;SDS011;9546;59.262;18.036;2022-08-03T03:56:31;2.45;;;1.20;;
18834;SDS011;9546;59.262;18.036;2022-08-03T03:58:57;2.25;;;1.30;;
18834;SDS011;9546;59.262;18.036;2022-08-03T04:01:24;2.60;;;1.10;;
18834;SDS011;9546;59.262;18.036;2022-08-03T04:03:52;2.72;;;0.88;;
18834;SDS011;9546;59.262;18.036;2022-08-03T04:06:18;2.38;;;1.00;;
18834;SDS011;9546;59.262;18.036;2022-08-03T04:09:02;1.88;;;1.10;;
18834;SDS011;9546;59.262;18.036;2022-08-03T04:11:48;3.97;;;1.38;;
18834;SDS011;9546;59.262;18.036;2022-08-03T04:14:16;2.20;;;1.10;;
18834;SDS011;9546;59.262;18.036;2022-08-03T04:16:44;2.92;;;1.20;;
18834;SDS011;9546;59.262;18.036;2022-08-03T04:19:14;1.92;;;1.00;;
18834;SDS011;9546;59.262;18.036;2022-08-03T04:21:42;3.35;;;1.30;;
18834;SDS011;9546;59.262;18.036;2022-08-03T04:24:09;1.17;;;0.98;;
18834;SDS011;9546;59.262;18.036;2022-08-03T04:26:38;2.05;;;0.90;;
18834;SDS011;9546;59.262;18.036;2022-08-03T04:29:05;2.47;;;1.02;;
18834;SDS011;9546;59.262;18.036;2022-08-03T04:31:32;3.55;;;1.40;;
18834;SDS011;9546;59.262;18.036;2022-08-03T04:33:59;1.27;;;0.88;;
18834;SDS011;9546;59.262;18.036;2022-08-03T04:36:28;2.63;;;1.00;;
18834;SDS011;9546;59.262;18.036;2022-08-03T04:38:59;2.80;;;1.02;;
18834;SDS011;9546;59.262;18.036;2022-08-03T04:41:26;2.15;;;1.20;;
18834;SDS011;9546;59.262;18.036;2022-08-03T04:43:53;2.17;;;1.15;;
18834;SDS011;9546;59.262;18.036;2022-08-03T04:46:21;4.30;;;1.10;;
18834;SDS011;9546;59.262;18.036;2022-08-03T04:48:48;2.45;;;1.10;;
18834;SDS011;9546;59.262;18.036;2022-08-03T04:51:15;2.35;;;1.30;;
18834;SDS011;9546;59.262;18.036;2022-08-03T05:12:06;2.30;;;1.33;;
18834;SDS011;9546;59.262;18.036;2022-08-03T05:14:34;4.63;;;1.45;;
18834;SDS011;9546;59.262;18.036;2022-08-03T05:17:02;3.80;;;1.10;;
18834;SDS011;9546;59.262;18.036;2022-08-03T05:19:29;3.42;;;1.20;;
18834;SDS011;9546;59.262;18.036;2022-08-03T05:21:56;1.17;;;1.00;;
18834;SDS011;9546;59.262;18.036;2022-08-03T05:24:23;1.38;;;1.20;;
18834;SDS011;9546;59.262;18.036;2022-08-03T05:26:49;1.48;;;1.20;;
18834;SDS011;9546;59.262;18.036;2022-08-03T05:29:18;2.05;;;1.13;;
18834;SDS011;9546;59.262;18.036;2022-08-03T05:31:44;3.97;;;1.33;;
18834;SDS011;9546;59.262;18.036;2022-08-03T05:34:11;2.13;;;1.30;;
18834;SDS011;9546;59.262;18.036;2022-08-03T05:36:38;4.28;;;1.33;;
18834;SDS011;9546;59.262;18.036;2022-08-03T05:39:05;3.95;;;1.50;;
18834;SDS011;9546;59.262;18.036;2022-08-03T05:41:32;3.92;;;1.15;;
18834;SDS011;9546;59.262;18.036;2022-08-03T05:43:58;1.58;;;1.40;;
18834;SDS011;9546;59.262;18.036;2022-08-03T05:46:27;2.72;;;1.30;;
18834;SDS011;9546;59.262;18.036;2022-08-03T05:48:54;2.08;;;1.17;;
18834;SDS011;9546;59.262;18.036;2022-08-03T05:51:20;3.05;;;1.20;;
18834;SDS011;9546;59.262;18.036;2022-08-03T05:53:47;3.75;;;0.90;;
18834;SDS011;9546;59.262;18.036;2022-08-03T05:56:14;3.03;;;1.23;;
18834;SDS011;9546;59.262;18.036;2022-08-03T05:58:41;3.08;;;1.15;;
18834;SDS011;9546;59.262;18.036;2022-08-03T06:01:09;3.20;;;1.30;;
18834;SDS011;9546;59.262;18.036;2022-08-03T06:03:37;2.10;;;1.17;;
18834;SDS011;9546;59.262;18.036;2022-08-03T06:06:04;1.20;;;1.00;;
18834;SDS011;9546;59.262;18.036;2022-08-03T06:08:31;1.67;;;1.13;;
18834;SDS011;9546;59.262;18.036;2022-08-03T06:10:57;3.15;;;1.60;;
18834;SDS011;9546;59.262;18.036;2022-08-03T06:13:24;1.65;;;1.10;;
18834;SDS011;9546;59.262;18.036;2022-08-03T06:15:51;2.05;;;1.20;;
18834;SDS011;9546;59.262;18.036;2022-08-03T06:18:18;2.00;;;1.20;;
18834;SDS011;9546;59.262;18.036;2022-08-03T06:20:46;3.55;;;1.27;;
18834;SDS011;9546;59.262;18.036;2022-08-03T06:23:13;2.50;;;1.40;;
18834;SDS011;9546;59.262;18.036;2022-08-03T06:25:40;4.07;;;1.40;;
18834;SDS011;9546;59.262;18.036;2022-08-03T06:28:06;2.05;;;1.10;;
18834;SDS011;9546;59.262;18.036;2022-08-03T06:30:33;1.83;;;1.20;;
18834;SDS011;9546;59.262;18.036;2022-08-03T06:33:00;1.77;;;1.00;;
18834;SDS011;9546;59.262;18.036;2022-08-03T06:35:27;1.88;;;1.13;;
18834;SDS011;9546;59.262;18.036;2022-08-03T06:37:55;5.68;;;1.38;;
18834;SDS011;9546;59.262;18.036;2022-08-03T06:40:22;5.40;;;1.30;;
18834;SDS011;9546;59.262;18.036;2022-08-03T06:42:53;3.42;;;1.35;;
18834;SDS011;9546;59.262;18.036;2022-08-03T06:45:20;5.95;;;1.60;;
18834;SDS011;9546;59.262;18.036;2022-08-03T06:47:58;2.50;;;1.38;;
18834;SDS011;9546;59.262;18.036;2022-08-03T06:50:26;2.03;;;1.50;;
18834;SDS011;9546;59.262;18.036;2022-08-03T07:12:27;1.73;;;1.20;;
18834;SDS011;9546;59.262;18.036;2022-08-03T07:14:55;3.28;;;1.30;;
18834;SDS011;9546;59.262;18.036;2022-08-03T07:17:23;3.60;;;1.30;;
18834;SDS011;9546;59.262;18.036;2022-08-03T07:19:50;6.10;;;1.35;;
18834;SDS011;9546;59.262;18.036;2022-08-03T07:22:17;2.17;;;1.63;;
18834;SDS011;9546;59.262;18.036;2022-08-03T07:24:43;3.65;;;1.50;;
18834;SDS011;9546;59.262;18.036;2022-08-03T07:27:11;2.78;;;1.50;;
18834;SDS011;9546;59.262;18.036;2022-08-03T07:29:40;2.17;;;1.10;;
18834;SDS011;9546;59.262;18.036;2022-08-03T07:32:06;1.63;;;1.13;;
18834;SDS011;9546;59.262;18.036;2022-08-03T07:34:33;4.93;;;1.52;;
18834;SDS011;9546;59.262;18.036;2022-08-03T07:37:00;3.53;;;1.63;;
18834;SDS011;9546;59.262;18.036;2022-08-03T07:39:27;2.58;;;1.30;;
18834;SDS011;9546;59.262;18.036;2022-08-03T07:41:54;2.53;;;1.60;;
18834;SDS011;9546;59.262;18.036;2022-08-03T07:44:20;5.28;;;1.88;;
18834;SDS011;9546;59.262;18.036;2022-08-03T07:46:49;2.38;;;1.30;;
18834;SDS011;9546;59.262;18.036;2022-08-03T07:49:15;1.95;;;1.50;;
18834;SDS011;9546;59.262;18.036;2022-08-03T07:51:42;6.72;;;1.30;;
18834;SDS011;9546;59.262;18.036;2022-08-03T07:54:09;2.25;;;1.08;;
18834;SDS011;9546;59.262;18.036;2022-08-03T07:56:36;2.95;;;1.50;;
18834;SDS011;9546;59.262;18.036;2022-08-03T07:59:03;2.97;;;1.40;;
18834;SDS011;9546;59.262;18.036;2022-08-03T08:01:30;2.97;;;1.45;;
18834;SDS011;9546;59.262;18.036;2022-08-03T08:04:02;3.40;;;1.20;;
18834;SDS011;9546;59.262;18.036;2022-08-03T08:06:28;4.72;;;1.50;;
18834;SDS011;9546;59.262;18.036;2022-08-03T08:08:57;2.50;;;1.60;;
18834;SDS011;9546;59.262;18.036;2022-08-03T08:11:26;1.88;;;1.55;;
18834;SDS011;9546;59.262;18.036;2022-08-03T08:13:54;2.83;;;1.42;;
18834;SDS011;9546;59.262;18.036;2022-08-03T08:16:21;2.85;;;1.33;;
18834;SDS011;9546;59.262;18.036;2022-08-03T08:18:48;3.75;;;1.88;;
18834;SDS011;9546;59.262;18.036;2022-08-03T08:21:16;2.45;;;1.20;;
18834;SDS011;9546;59.262;18.036;2022-08-03T08:23:43;1.83;;;1.30;;
18834;SDS011;9546;59.262;18.036;2022-08-03T08:26:10;2.00;;;1.33;;
18834;SDS011;9546;59.262;18.036;2022-08-03T08:28:37;9.50;;;1.60;;
18834;SDS011;9546;59.262;18.036;2022-08-03T08:31:04;2.35;;;1.13;;
18834;SDS011;9546;59.262;18.036;2022-08-03T08:33:31;2.63;;;1.10;;
18834;SDS011;9546;59.262;18.036;2022-08-03T08:35:59;3.83;;;1.30;;
18834;SDS011;9546;59.262;18.036;2022-08-03T08:38:27;2.53;;;1.00;;
18834;SDS011;9546;59.262;18.036;2022-08-03T08:40:54;3.30;;;1.52;;
18834;SDS011;9546;59.262;18.036;2022-08-03T08:43:21;4.93;;;1.15;;
18834;SDS011;9546;59.262;18.036;2022-08-03T08:45:48;3.85;;;1.13;;
18834;SDS011;9546;59.262;18.036;2022-08-03T08:48:17;1.52;;;1.00;;
18834;SDS011;9546;59.262;18.036;2022-08-03T08:50:48;2.38;;;0.90;;
18834;SDS011;9546;59.262;18.036;2022-08-03T09:12:26;4.80;;;1.50;;
18834;SDS011;9546;59.262;18.036;2022-08-03T09:14:53;2.85;;;1.05;;
18834;SDS011;9546;59.262;18.036;2022-08-03T09:17:20;3.42;;;1.00;;
18834;SDS011;9546;59.262;18.036;2022-08-03T09:20:03;4.63;;;1.33;;
18834;SDS011;9546;59.262;18.036;2022-08-03T09:22:32;6.80;;;1.33;;
18834;SDS011;9546;59.262;18.036;2022-08-03T09:25:00;3.00;;;1.63;;
18834;SDS011;9546;59.262;18.036;2022-08-03T09:27:29;5.93;;;1.20;;
18834;SDS011;9546;59.262;18.036;2022-08-03T09:30:11;2.35;;;0.95;;
18834;SDS011;9546;59.262;18.036;2022-08-03T09:32:39;4.68;;;1.45;;
18834;SDS011;9546;59.262;18.036;2022-08-03T09:35:06;4.13;;;1.20;;
18834;SDS011;9546;59.262;18.036;2022-08-03T09:37:33;1.85;;;1.23;;
18834;SDS011;9546;59.262;18.036;2022-08-03T09:40:00;2.95;;;1.45;;
18834;SDS011;9546;59.262;18.036;2022-08-03T09:42:27;2.53;;;1.48;;
18834;SDS011;9546;59.262;18.036;2022-08-03T09:44:56;1.35;;;1.10;;
18834;SDS011;9546;59.262;18.036;2022-08-03T09:47:26;1.90;;;1.10;;
18834;SDS011;9546;59.262;18.036;2022-08-03T09:49:58;1.50;;;1.20;;
18834;SDS011;9546;59.262;18.036;2022-08-03T09:52:29;3.05;;;1.20;;
18834;SDS011;9546;59.262;18.036;2022-08-03T09:54:56;3.80;;;1.00;;
18834;SDS011;9546;59.262;18.036;2022-08-03T09:57:25;1.35;;;1.25;;
18834;SDS011;9546;59.262;18.036;2022-08-03T10:00:04;1.85;;;1.00;;
18834;SDS011;9546;59.262;18.036;2022-08-03T10:02:34;2.10;;;1.13;;
18834;SDS011;9546;59.262;18.036;2022-08-03T10:05:01;1.77;;;1.02;;
18834;SDS011;9546;59.262;18.036;2022-08-03T10:07:28;3.33;;;0.93;;
18834;SDS011;9546;59.262;18.036;2022-08-03T10:09:55;3.50;;;1.20;;
18834;SDS011;9546;59.262;18.036;2022-08-03T10:12:23;1.88;;;1.00;;
18834;SDS011;9546;59.262;18.036;2022-08-03T10:14:51;5.80;;;1.10;;
18834;SDS011;9546;59.262;18.036;2022-08-03T10:17:20;2.05;;;1.13;;
18834;SDS011;9546;59.262;18.036;2022-08-03T10:19:47;4.90;;;1.05;;
18834;SDS011;9546;59.262;18.036;2022-08-03T10:22:15;4.10;;;0.90;;
18834;SDS011;9546;59.262;18.036;2022-08-03T10:24:46;1.00;;;0.80;;
18834;SDS011;9546;59.262;18.036;2022-08-03T10:27:17;1.42;;;1.10;;
18834;SDS011;9546;59.262;18.036;2022-08-03T10:29:46;2.90;;;0.90;;
18834;SDS011;9546;59.262;18.036;2022-08-03T10:32:21;2.50;;;1.20;;
18834;SDS011;9546;59.262;18.036;2022-08-03T10:34:56;2.38;;;1.08;;
18834;SDS011;9546;59.262;18.036;2022-08-03T10:37:28;5.80;;;1.40;;
18834;SDS011;9546;59.262;18.036;2022-08-03T10:39:57;2.25;;;1.10;;
18834;SDS011;9546;59.262;18.036;2022-08-03T10:42:26;3.20;;;1.00;;
18834;SDS011;9546;59.262;18.036;2022-08-03T10:45:04;3.17;;;1.35;;
18834;SDS011;9546;59.262;18.036;2022-08-03T10:47:36;4.50;;;1.40;;
18834;SDS011;9546;59.262;18.036;2022-08-03T10:50:03;5.13;;;1.60;;
18834;SDS011;9546;59.262;18.036;2022-08-03T11:12:33;3.08;;;1.10;;
18834;SDS011;9546;59.262;18.036;2022-08-03T11:15:01;2.78;;;1.17;;
18834;SDS011;9546;59.262;18.036;2022-08-03T11:17:30;1.45;;;1.02;;
18834;SDS011;9546;59.262;18.036;2022-08-03T11:19:58;1.92;;;1.35;;
18834;SDS011;9546;59.262;18.036;2022-08-03T11:22:25;2.63;;;1.45;;
18834;SDS011;9546;59.262;18.036;2022-08-03T11:25:18;2.45;;;1.33;;
18834;SDS011;9546;59.262;18.036;2022-08-03T11:27:45;2.17;;;1.20;;
18834;SDS011;9546;59.262;18.036;2022-08-03T11:30:22;1.90;;;1.40;;
18834;SDS011;9546;59.262;18.036;2022-08-03T11:32:56;1.40;;;1.00;;
18834;SDS011;9546;59.262;18.036;2022-08-03T11:35:24;3.13;;;1.30;;
18834;SDS011;9546;59.262;18.036;2022-08-03T11:38:04;1.77;;;1.20;;
18834;SDS011;9546;59.262;18.036;2022-08-03T11:40:40;2.70;;;1.27;;
18834;SDS011;9546;59.262;18.036;2022-08-03T11:43:09;2.33;;;1.20;;
18834;SDS011;9546;59.262;18.036;2022-08-03T11:45:59;2.53;;;1.20;;
18834;SDS011;9546;59.262;18.036;2022-08-03T11:48:27;2.00;;;1.40;;
18834;SDS011;9546;59.262;18.036;2022-08-03T11:51:00;2.13;;;1.20;;
18834;SDS011;9546;59.262;18.036;2022-08-03T11:53:28;4.80;;;1.40;;
18834;SDS011;9546;59.262;18.036;2022-08-03T11:55:57;1.65;;;1.27;;
18834;SDS011;9546;59.262;18.036;2022-08-03T11:58:25;6.45;;;1.67;;
18834;SDS011;9546;59.262;18.036;2022-08-03T12:00:52;3.75;;;1.95;;
18834;SDS011;9546;59.262;18.036;2022-08-03T12:03:31;2.88;;;1.33;;
18834;SDS011;9546;59.262;18.036;2022-08-03T12:05:58;2.53;;;1.30;;
18834;SDS011;9546;59.262;18.036;2022-08-03T12:08:32;2.67;;;1.30;;
18834;SDS011;9546;59.262;18.036;2022-08-03T12:10:59;4.00;;;1.40;;
18834;SDS011;9546;59.262;18.036;2022-08-03T12:13:39;2.55;;;1.50;;
18834;SDS011;9546;59.262;18.036;2022-08-03T12:16:07;3.75;;;1.50;;
18834;SDS011;9546;59.262;18.036;2022-08-03T12:18:34;3.53;;;1.73;;
18834;SDS011;9546;59.262;18.036;2022-08-03T12:21:03;1.67;;;1.25;;
18834;SDS011;9546;59.262;18.036;2022-08-03T12:23:33;5.07;;;1.65;;
18834;SDS011;9546;59.262;18.036;2022-08-03T12:26:01;2.35;;;1.35;;
18834;SDS011;9546;59.262;18.036;2022-08-03T12:28:28;1.55;;;1.20;;
18834;SDS011;9546;59.262;18.036;2022-08-03T12:30:59;1.38;;;0.95;;
18834;SDS011;9546;59.262;18.036;2022-08-03T12:33:27;3.03;;;1.40;;
18834;SDS011;9546;59.262;18.036;2022-08-03T12:36:01;3.25;;;1.13;;
18834;SDS011;9546;59.262;18.036;2022-08-03T12:38:34;1.65;;;1.15;;
18834;SDS011;9546;59.262;18.036;2022-08-03T12:41:03;1.35;;;1.10;;
18834;SDS011;9546;59.262;18.036;2022-08-03T12:43:32;3.58;;;1.10;;
18834;SDS011;9546;59.262;18.036;2022-08-03T12:46:09;4.90;;;1.30;;
18834;SDS011;9546;59.262;18.036;2022-08-03T12:51:26;2.80;;;1.30;;
18834;SDS011;9546;59.262;18.036;2022-08-03T13:12:44;3.97;;;1.10;;
18834;SDS011;9546;59.262;18.036;2022-08-03T13:15:12;2.70;;;1.40;;
18834;SDS011;9546;59.262;18.036;2022-08-03T13:17:39;1.95;;;1.10;;
18834;SDS011;9546;59.262;18.036;2022-08-03T13:20:06;2.55;;;1.00;;
18834;SDS011;9546;59.262;18.036;2022-08-03T13:22:33;1.40;;;1.20;;
18834;SDS011;9546;59.262;18.036;2022-08-03T13:25:01;2.67;;;1.40;;
18834;SDS011;9546;59.262;18.036;2022-08-03T13:27:28;1.67;;;1.33;;
18834;SDS011;9546;59.262;18.036;2022-08-03T13:30:01;1.70;;;1.27;;
18834;SDS011;9546;59.262;18.036;2022-08-03T13:32:35;1.45;;;1.20;;
18834;SDS011;9546;59.262;18.036;2022-08-03T13:35:02;1.10;;;1.00;;
18834;SDS011;9546;59.262;18.036;2022-08-03T13:37:30;2.42;;;1.30;;
18834;SDS011;9546;59.262;18.036;2022-08-03T13:39:57;1.50;;;1.20;;
18834;SDS011;9546;59.262;18.036;2022-08-03T13:42:24;1.70;;;1.15;;
18834;SDS011;9546;59.262;18.036;2022-08-03T13:44:51;2.50;;;1.20;;
18834;SDS011;9546;59.262;18.036;2022-08-03T13:47:19;1.92;;;1.10;;
18834;SDS011;9546;59.262;18.036;2022-08-03T13:49:46;2.65;;;1.20;;
18834;SDS011;9546;59.262;18.036;2022-08-03T13:52:15;2.38;;;1.10;;
18834;SDS011;9546;59.262;18.036;2022-08-03T13:54:41;1.92;;;1.08;;
18834;SDS011;9546;59.262;18.036;2022-08-03T13:57:08;1.63;;;1.17;;
18834;SDS011;9546;59.262;18.036;2022-08-03T13:59:36;5.07;;;1.27;;
18834;SDS011;9546;59.262;18.036;2022-08-03T14:02:03;1.88;;;1.20;;
18834;SDS011;9546;59.262;18.036;2022-08-03T14:04:31;2.40;;;1.15;;
18834;SDS011;9546;59.262;18.036;2022-08-03T14:06:58;1.48;;;1.10;;
18834;SDS011;9546;59.262;18.036;2022-08-03T14:09:24;3.70;;;1.27;;
18834;SDS011;9546;59.262;18.036;2022-08-03T14:11:51;3.92;;;1.30;;
18834;SDS011;9546;59.262;18.036;2022-08-03T14:14:19;3.63;;;1.25;;
18834;SDS011;9546;59.262;18.036;2022-08-03T14:16:46;2.33;;;1.23;;
18834;SDS011;9546;59.262;18.036;2022-08-03T14:19:13;2.58;;;1.20;;
18834;SDS011;9546;59.262;18.036;2022-08-03T14:21:41;1.92;;;1.25;;
18834;SDS011;9546;59.262;18.036;2022-08-03T14:24:08;2.13;;;1.08;;
18834;SDS011;9546;59.262;18.036;2022-08-03T14:26:35;4.95;;;1.60;;
18834;SDS011;9546;59.262;18.036;2022-08-03T14:29:02;4.00;;;1.50;;
18834;SDS011;9546;59.262;18.036;2022-08-03T14:31:30;1.83;;;1.33;;
18834;SDS011;9546;59.262;18.036;2022-08-03T14:33:56;4.43;;;1.40;;
18834;SDS011;9546;59.262;18.036;2022-08-03T14:36:23;2.22;;;1.38;;
18834;SDS011;9546;59.262;18.036;2022-08-03T14:38:52;2.85;;;1.48;;
18834;SDS011;9546;59.262;18.036;2022-08-03T14:41:18;3.80;;;1.50;;
18834;SDS011;9546;59.262;18.036;2022-08-03T14:43:45;4.57;;;1.65;;
18834;SDS011;9546;59.262;18.036;2022-08-03T14:46:12;3.63;;;2.03;;
18834;SDS011;9546;59.262;18.036;2022-08-03T14:48:39;3.55;;;1.95;;
18834;SDS011;9546;59.262;18.036;2022-08-03T14:51:06;3.90;;;1.70;;
18834;SDS011;9546;59.262;18.036;2022-08-03T15:12:07;2.63;;;1.77;;
18834;SDS011;9546;59.262;18.036;2022-08-03T15:14:34;4.13;;;1.52;;
18834;SDS011;9546;59.262;18.036;2022-08-03T15:17:01;7.43;;;2.25;;
18834;SDS011;9546;59.262;18.036;2022-08-03T15:19:28;3.22;;;1.75;;
18834;SDS011;9546;59.262;18.036;2022-08-03T15:21:54;9.88;;;1.95;;
18834;SDS011;9546;59.262;18.036;2022-08-03T15:24:21;5.78;;;1.55;;
18834;SDS011;9546;59.262;18.036;2022-08-03T15:26:49;6.72;;;2.15;;
18834;SDS011;9546;59.262;18.036;2022-08-03T15:29:17;5.47;;;1.67;;
18834;SDS011;9546;59.262;18.036;2022-08-03T15:31:44;7.28;;;1.73;;
18834;SDS011;9546;59.262;18.036;2022-08-03T15:34:11;5.15;;;2.08;;
18834;SDS011;9546;59.262;18.036;2022-08-03T15:36:38;4.30;;;2.03;;
18834;SDS011;9546;59.262;18.036;2022-08-03T15:39:05;3.53;;;1.90;;
18834;SDS011;9546;59.262;18.036;2022-08-03T15:41:32;6.68;;;2.22;;
18834;SDS011;9546;59.262;18.036;2022-08-03T15:43:58;4.82;;;1.80;;
18834;SDS011;9546;59.262;18.036;2022-08-03T15:46:28;6.93;;;2.13;;
18834;SDS011;9546;59.262;18.036;2022-08-03T15:48:54;3.20;;;1.45;;
18834;SDS011;9546;59.262;18.036;2022-08-03T15:51:21;7.68;;;2.58;;
18834;SDS011;9546;59.262;18.036;2022-08-03T15:53:48;8.00;;;2.03;;
18834;SDS011;9546;59.262;18.036;2022-08-03T15:56:15;3.53;;;1.90;;
18834;SDS011;9546;59.262;18.036;2022-08-03T15:58:41;4.60;;;2.10;;
18834;SDS011;9546;59.262;18.036;2022-08-03T16:01:08;8.05;;;2.10;;
18834;SDS011;9546;59.262;18.036;2022-08-03T16:03:37;4.90;;;2.00;;
18834;SDS011;9546;59.262;18.036;2022-08-03T16:06:04;8.48;;;2.10;;
18834;SDS011;9546;59.262;18.036;2022-08-03T16:08:32;7.30;;;2.20;;
18834;SDS011;9546;59.262;18.036;2022-08-03T16:10:59;2.90;;;2.00;;
18834;SDS011;9546;59.262;18.036;2022-08-03T16:13:26;4.97;;;2.33;;
18834;SDS011;9546;59.262;18.036;2022-08-03T16:15:53;3.67;;;1.52;;
18834;SDS011;9546;59.262;18.036;2022-08-03T16:18:20;3.80;;;2.10;;
18834;SDS011;9546;59.262;18.036;2022-08-03T16:20:48;6.97;;;2.28;;
18834;SDS011;9546;59.262;18.036;2022-08-03T16:23:15;5.10;;;2.10;;
18834;SDS011;9546;59.262;18.036;2022-08-03T16:25:43;5.40;;;2.20;;
18834;SDS011;9546;59.262;18.036;2022-08-03T16:28:10;7.32;;;2.65;;
18834;SDS011;9546;59.262;18.036;2022-08-03T16:30:38;7.78;;;2.60;;
18834;SDS011;9546;59.262;18.036;2022-08-03T16:33:05;9.15;;;2.83;;
18834;SDS011;9546;59.262;18.036;2022-08-03T16:35:32;4.07;;;2.00;;
18834;SDS011;9546;59.262;18.036;2022-08-03T16:38:00;7.57;;;2.03;;
18834;SDS011;9546;59.262;18.036;2022-08-03T16:40:27;7.65;;;2.08;;
18834;SDS011;9546;59.262;18.036;2022-08-03T16:42:54;7.60;;;2.13;;
18834;SDS011;9546;59.262;18.036;2022-08-03T16:45:21;6.32;;;2.35;;
18834;SDS011;9546;59.262;18.036;2022-08-03T16:47:48;6.35;;;2.17;;
18834;SDS011;9546;59.262;18.036;2022-08-03T16:50:15;5.53;;;2.50;;
18834;SDS011;9546;59.262;18.036;2022-08-03T17:12:15;4.32;;;2.30;;
18834;SDS011;9546;59.262;18.036;2022-08-03T17:14:42;16.45;;;2.35;;
18834;SDS011;9546;59.262;18.036;2022-08-03T17:17:13;4.78;;;2.20;;
18834;SDS011;9546;59.262;18.036;2022-08-03T17:19:42;8.05;;;2.55;;
18834;SDS011;9546;59.262;18.036;2022-08-03T17:22:11;6.68;;;2.38;;
18834;SDS011;9546;59.262;18.036;2022-08-03T17:24:40;7.00;;;2.30;;
18834;SDS011;9546;59.262;18.036;2022-08-03T17:27:12;6.30;;;2.60;;
18834;SDS011;9546;59.262;18.036;2022-08-03T17:29:44;5.95;;;2.70;;
18834;SDS011;9546;59.262;18.036;2022-08-03T17:32:13;5.40;;;2.60;;
18834;SDS011;9546;59.262;18.036;2022-08-03T17:34:41;4.10;;;2.45;;
18834;SDS011;9546;59.262;18.036;2022-08-03T17:37:09;5.70;;;2.15;;
18834;SDS011;9546;59.262;18.036;2022-08-03T17:39:37;7.22;;;2.45;;
18834;SDS011;9546;59.262;18.036;2022-08-03T17:42:06;3.90;;;2.50;;
18834;SDS011;9546;59.262;18.036;2022-08-03T17:44:34;5.38;;;2.45;;
18834;SDS011;9546;59.262;18.036;2022-08-03T17:47:01;4.85;;;2.40;;
18834;SDS011;9546;59.262;18.036;2022-08-03T17:49:28;5.32;;;2.60;;
18834;SDS011;9546;59.262;18.036;2022-08-03T17:51:57;5.57;;;2.53;;